Time;durP1;ratioP1;P1;durP2;ratioP2;P2;SDS_P1;SDS_P2;PMS_P1;PMS_P2;Temp;Humidity;BMP_temperature;BMP_pressure;BME280_temperature;BME280_humidity;BME280_pressure;Samples;Min_cycle;Max_cycle;Signal;HPM_P1;HPM_P2
2022/11/15 00:01:52;;;;;;;8.75;6.10;;;11.40;99.90;;;;;;5096434;28;20028;-76
2022/11/15 00:04:18;;;;;;;9.10;6.07;;;11.40;99.90;;;;;;5096530;28;20054;-76
2022/11/15 00:06:43;;;;;;;8.18;6.05;;;11.40;99.90;;;;;;5095985;28;20024;-75
2022/11/15 00:09:09;;;;;;;6.85;5.53;;;11.20;99.90;;;;;;5094538;28;20024;-76
2022/11/15 00:11:35;;;;;;;7.90;5.95;;;11.20;99.90;;;;;;5096021;28;20032;-76
2022/11/15 00:14:02;;;;;;;8.73;6.03;;;11.20;99.90;;;;;;5096247;28;20386;-76
2022/11/15 00:16:27;;;;;;;6.90;5.80;;;11.10;99.90;;;;;;5095808;28;20469;-76
2022/11/15 00:18:53;;;;;;;7.43;5.63;;;11.10;99.90;;;;;;5096124;28;20066;-76
2022/11/15 00:21:19;;;;;;;7.82;6.00;;;11.20;99.90;;;;;;5095792;28;20024;-76
2022/11/15 00:23:44;;;;;;;7.10;5.85;;;11.20;99.90;;;;;;5095489;28;20047;-76
2022/11/15 00:26:14;;;;;;;8.55;5.90;;;11.20;99.90;;;;;;5089230;28;20501;-76
2022/11/15 00:28:41;;;;;;;7.75;6.05;;;11.20;99.90;;;;;;5075790;28;20035;-76
2022/11/15 00:31:11;;;;;;;7.38;5.47;;;11.30;99.90;;;;;;5075334;28;20034;-76
2022/11/15 00:33:36;;;;;;;8.57;5.97;;;11.20;99.90;;;;;;5075323;28;20090;-76
2022/11/15 00:36:04;;;;;;;7.50;5.47;;;11.30;99.90;;;;;;5075341;28;20486;-76
2022/11/15 00:38:34;;;;;;;7.30;5.57;;;11.30;99.90;;;;;;5074884;28;20663;-76
2022/11/15 00:41:01;;;;;;;8.27;6.00;;;11.30;99.90;;;;;;5077944;28;20021;-76
2022/11/15 00:43:27;;;;;;;8.00;6.22;;;11.30;99.90;;;;;;5116330;28;20022;-76
2022/11/15 00:45:53;;;;;;;8.73;6.20;;;11.40;99.90;;;;;;5115843;28;20024;-76
2022/11/15 00:48:18;;;;;;;7.80;5.93;;;11.40;99.90;;;;;;5116013;28;20023;-76
2022/11/15 00:50:44;;;;;;;7.70;5.75;;;11.50;99.90;;;;;;5100488;28;20031;-75
2022/11/15 00:53:10;;;;;;;6.93;6.20;;;11.30;99.90;;;;;;5094988;28;20501;-76
2022/11/15 00:55:36;;;;;;;7.20;5.20;;;11.30;99.90;;;;;;5095296;28;20024;-76
2022/11/15 00:58:02;;;;;;;7.32;5.93;;;11.30;99.90;;;;;;5094954;28;20568;-76
2022/11/15 01:00:28;;;;;;;8.00;6.30;;;11.30;99.90;;;;;;5095403;28;20115;-76
2022/11/15 01:02:53;;;;;;;8.23;5.88;;;11.30;99.90;;;;;;5095268;28;20488;-76
2022/11/15 01:05:19;;;;;;;6.72;5.45;;;11.30;99.90;;;;;;5095334;28;20032;-76
2022/11/15 01:07:45;;;;;;;6.95;4.65;;;11.30;99.90;;;;;;5093380;28;20020;-76
2022/11/15 01:10:11;;;;;;;7.20;5.43;;;11.30;99.90;;;;;;5095198;28;20031;-76
2022/11/15 01:12:37;;;;;;;6.28;5.40;;;11.30;99.90;;;;;;5095120;28;20035;-76
2022/11/15 01:15:03;;;;;;;7.05;5.97;;;11.30;99.90;;;;;;5094869;28;20036;-76
2022/11/15 01:17:30;;;;;;;8.43;5.72;;;11.40;99.90;;;;;;5095138;28;20094;-76
2022/11/15 01:19:56;;;;;;;8.15;6.07;;;11.30;99.90;;;;;;5094870;28;20020;-76
2022/11/15 01:22:21;;;;;;;6.38;5.22;;;11.30;99.90;;;;;;5093048;28;20028;-76
2022/11/15 01:24:49;;;;;;;8.00;6.03;;;11.30;99.90;;;;;;5094565;28;20052;-76
2022/11/15 01:27:14;;;;;;;6.72;5.50;;;11.40;99.90;;;;;;5079401;28;20025;-76
2022/11/15 01:29:40;;;;;;;8.30;5.50;;;11.40;99.90;;;;;;5074646;28;20489;-76
2022/11/15 01:32:06;;;;;;;7.25;6.10;;;11.40;99.90;;;;;;5074272;28;20078;-76
2022/11/15 01:34:31;;;;;;;6.88;5.53;;;11.40;99.90;;;;;;5073945;28;20028;-76
2022/11/15 01:36:57;;;;;;;7.15;5.35;;;11.30;99.90;;;;;;5074041;28;20108;-76
2022/11/15 01:39:23;;;;;;;6.68;5.40;;;11.30;99.90;;;;;;5074433;28;20146;-76
2022/11/15 01:41:48;;;;;;;6.60;4.95;;;11.40;99.90;;;;;;5090783;28;20465;-75
2022/11/15 01:44:39;;;;;;;6.82;5.68;;;11.30;99.90;;;;;;5114722;28;20020;-76
2022/11/15 01:47:23;;;;;;;6.57;5.43;;;11.30;99.90;;;;;;5114658;27;20098;-76
2022/11/15 01:50:05;;;;;;;6.38;5.15;;;11.40;99.90;;;;;;5106179;28;20032;-76
2022/11/15 01:52:33;;;;;;;8.82;5.75;;;11.40;99.90;;;;;;5094020;28;20028;-76
2022/11/15 01:55:02;;;;;;;7.03;5.40;;;11.40;99.90;;;;;;5094159;28;20050;-76
2022/11/15 01:57:28;;;;;;;6.38;5.25;;;11.40;99.90;;;;;;5094143;28;20019;-76
2022/11/15 01:59:54;;;;;;;6.95;5.63;;;11.40;99.90;;;;;;5093963;28;20027;-76
2022/11/15 02:02:20;;;;;;;6.28;5.05;;;11.40;99.90;;;;;;5094268;28;20488;-76
2022/11/15 02:04:48;;;;;;;7.47;5.68;;;11.30;99.90;;;;;;5093893;28;20050;-76
2022/11/15 02:07:17;;;;;;;5.82;4.72;;;11.30;99.90;;;;;;5093823;28;20058;-76
2022/11/15 02:09:43;;;;;;;6.85;5.78;;;11.30;99.90;;;;;;5092263;28;20165;-75
2022/11/15 02:12:11;;;;;;;7.10;5.47;;;11.30;99.90;;;;;;5093731;28;20477;-76
2022/11/15 02:14:39;;;;;;;5.28;4.55;;;11.30;99.90;;;;;;5093831;28;20562;-76
2022/11/15 02:17:42;;;;;;;6.60;5.07;;;11.30;99.90;;;;;;5093732;28;20028;-76
2022/11/15 02:20:10;;;;;;;5.70;4.40;;;11.30;99.90;;;;;;5091883;28;20024;-76
2022/11/15 02:22:58;;;;;;;5.97;5.03;;;11.30;99.90;;;;;;5093344;28;20139;-76
2022/11/15 02:25:35;;;;;;;5.93;5.03;;;11.30;99.90;;;;;;5093358;28;20066;-75
2022/11/15 02:28:19;;;;;;;5.65;5.05;;;11.30;99.90;;;;;;5073462;28;20064;-76
2022/11/15 02:30:59;;;;;;;5.38;4.60;;;11.30;99.90;;;;;;5073398;28;20078;-75
2022/11/15 02:33:47;;;;;;;5.38;4.38;;;11.20;99.90;;;;;;5071793;28;20141;-76
2022/11/15 02:36:22;;;;;;;5.88;4.78;;;11.30;99.90;;;;;;5072817;28;20595;-75
2022/11/15 02:39:06;;;;;;;6.38;4.55;;;11.30;99.90;;;;;;5073404;28;20030;-75
2022/11/15 02:41:38;;;;;;;6.10;4.70;;;11.30;99.90;;;;;;5084413;28;20066;-75
2022/11/15 02:44:13;;;;;;;5.65;5.07;;;11.30;99.90;;;;;;5113915;28;20043;-75
2022/11/15 02:49:34;;;;;;;6.32;4.70;;;11.30;99.90;;;;;;5108766;28;20042;-76
2022/11/15 02:51:59;;;;;;;4.90;4.28;;;11.40;99.90;;;;;;5091525;28;20481;-76
2022/11/15 02:54:31;;;;;;;5.28;4.20;;;11.30;99.90;;;;;;5093200;28;20107;-76
2022/11/15 02:56:59;;;;;;;;;;;11.20;99.90;;;;;;5093445;28;20032;-76
2022/11/15 02:59:25;;;;;;;4.80;3.80;;;11.20;99.90;;;;;;5093080;28;19908;-76
2022/11/15 03:02:18;;;;;;;5.47;4.53;;;11.20;99.90;;;;;;5092750;28;20513;-76
2022/11/15 03:04:46;;;;;;;5.72;4.10;;;11.20;99.90;;;;;;5091652;28;20024;-75
2022/11/15 03:07:23;;;;;;;4.00;3.53;;;11.20;99.90;;;;;;5092557;28;20024;-76
2022/11/15 03:09:54;;;;;;;4.82;4.03;;;11.20;99.90;;;;;;5092987;28;20047;-75
2022/11/15 03:12:35;;;;;;;4.97;4.10;;;11.10;99.90;;;;;;5090913;28;20035;-76
2022/11/15 03:15:08;;;;;;;4.70;4.03;;;11.10;99.90;;;;;;5092444;28;20103;-76
2022/11/15 03:17:39;;;;;;;5.15;4.10;;;11.10;99.90;;;;;;5091057;28;20799;-76
2022/11/15 03:20:07;;;;;;;4.65;4.22;;;11.10;99.90;;;;;;5092505;28;20103;-76
2022/11/15 03:22:37;;;;;;;4.38;3.88;;;11.10;99.90;;;;;;5092463;28;20028;-75
2022/11/15 03:25:07;;;;;;;4.53;3.75;;;11.10;99.90;;;;;;5090979;28;20075;-76
2022/11/15 03:27:39;;;;;;;4.90;3.90;;;11.10;99.90;;;;;;5073188;28;20060;-75
2022/11/15 03:30:08;;;;;;;5.45;3.60;;;11.00;99.90;;;;;;5071879;28;20114;-75
2022/11/15 03:32:52;;;;;;;4.20;3.80;;;11.00;99.90;;;;;;5071994;28;20040;-75
2022/11/15 03:35:22;;;;;;;4.93;3.67;;;10.90;99.90;;;;;;5072192;28;20032;-76
2022/11/15 03:38:09;;;;;;;4.60;3.83;;;11.00;99.90;;;;;;5072023;28;20031;-75
2022/11/15 03:40:59;;;;;;;3.90;3.42;;;11.00;99.90;;;;;;5072238;28;20113;-75
2022/11/15 03:43:38;;;;;;;4.25;3.85;;;11.10;99.90;;;;;;5072337;28;20509;-76
2022/11/15 03:46:12;;;;;;;4.70;3.90;;;11.10;99.90;;;;;;5072033;28;20031;-76
2022/11/15 03:48:53;;;;;;;3.75;3.30;;;11.20;99.90;;;;;;5072277;28;20029;-75
2022/11/15 03:51:19;;;;;;;4.57;3.63;;;11.30;99.90;;;;;;5091872;28;20024;-76
2022/11/15 03:53:45;;;;;;;4.55;3.47;;;11.30;99.90;;;;;;5090473;28;20566;-75
2022/11/15 03:56:11;;;;;;;4.65;3.50;;;11.30;99.90;;;;;;5092224;28;20043;-75
2022/11/15 03:58:37;;;;;;;3.50;3.20;;;11.30;99.90;;;;;;5091706;28;20489;-75
2022/11/15 04:01:03;;;;;;;4.07;3.67;;;11.50;99.90;;;;;;5091711;28;20493;-76
2022/11/15 04:03:28;;;;;;;4.10;3.70;;;11.70;99.90;;;;;;5092374;28;20556;-75
2022/11/15 04:05:54;;;;;;;5.68;3.97;;;11.90;99.90;;;;;;5090484;28;20493;-75
2022/11/15 04:08:20;;;;;;;4.45;3.95;;;12.20;99.90;;;;;;5092233;28;20055;-75
2022/11/15 04:10:48;;;;;;;6.70;4.50;;;12.10;99.90;;;;;;5092106;28;20050;-75
2022/11/15 04:13:13;;;;;;;4.35;3.95;;;12.20;99.90;;;;;;5091565;28;20032;-75
2022/11/15 04:15:39;;;;;;;5.40;3.80;;;12.20;99.90;;;;;;5091517;28;20096;-75
2022/11/15 04:18:05;;;;;;;5.20;3.65;;;12.30;99.90;;;;;;5092068;28;20020;-75
2022/11/15 04:26:17;;;;;;;4.13;3.70;;;12.40;99.90;;;;;;5087069;28;20056;-75
2022/11/15 04:31:28;;;;;;;3.97;3.20;;;12.60;99.90;;;;;;5071593;28;20059;-75
2022/11/15 04:33:53;;;;;;;5.38;3.38;;;12.60;99.90;;;;;;5071834;28;20107;-75
2022/11/15 04:39:04;;;;;;;3.58;3.22;;;12.70;99.90;;;;;;5071372;28;20116;-75
2022/11/15 04:41:30;;;;;;;4.78;3.40;;;12.70;99.90;;;;;;5083464;28;20107;-75
2022/11/15 04:43:55;;;;;;;4.07;3.40;;;12.70;99.90;;;;;;5115768;28;20043;-76
2022/11/15 04:46:23;;;;;;;4.57;3.10;;;12.80;99.90;;;;;;5114304;28;20484;-75
2022/11/15 04:48:49;;;;;;;4.53;3.70;;;12.80;99.90;;;;;;5116180;28;20024;-75
2022/11/15 04:51:15;;;;;;;3.72;3.38;;;12.80;99.90;;;;;;5096163;27;20050;-75
2022/11/15 04:53:40;;;;;;;3.95;3.00;;;12.80;99.90;;;;;;5095391;28;20542;-76
2022/11/15 04:56:06;;;;;;;5.90;3.45;;;12.80;99.90;;;;;;5094052;28;20085;-75
2022/11/15 04:58:32;;;;;;;4.43;3.47;;;12.90;99.90;;;;;;5094889;28;20020;-76
2022/11/15 05:00:57;;;;;;;4.95;3.00;;;12.90;99.90;;;;;;5095233;28;20492;-76
2022/11/15 05:06:07;;;;;;;3.72;3.35;;;13.00;99.90;;;;;;5095308;28;20082;-75
2022/11/15 05:08:33;;;;;;;4.95;3.95;;;13.00;99.90;;;;;;5095171;28;20028;-76
2022/11/15 05:10:59;;;;;;;5.68;3.83;;;13.00;99.90;;;;;;5095015;28;20024;-75
2022/11/15 05:13:24;;;;;;;6.18;4.85;;;13.00;99.90;;;;;;5094820;28;20032;-76
2022/11/15 05:15:50;;;;;;;4.72;4.15;;;13.10;99.90;;;;;;5094972;28;20020;-76
2022/11/15 05:18:16;;;;;;;5.85;4.43;;;13.10;99.90;;;;;;5093555;28;20484;-76
2022/11/15 05:20:41;;;;;;;7.10;5.35;;;13.10;99.90;;;;;;5095157;28;20145;-75
2022/11/15 05:23:07;;;;;;;6.40;4.88;;;13.10;99.90;;;;;;5094503;28;20050;-76
2022/11/15 05:25:33;;;;;;;5.25;4.68;;;13.10;99.90;;;;;;5093515;28;20493;-76
2022/11/15 05:27:58;;;;;;;5.95;5.35;;;13.10;99.90;;;;;;5074492;28;20470;-76
2022/11/15 05:30:24;;;;;;;5.90;4.80;;;13.20;99.90;;;;;;5074619;28;20024;-76
2022/11/15 05:32:50;;;;;;;9.65;5.53;;;13.10;99.90;;;;;;5074578;28;20028;-76
2022/11/15 05:35:29;;;;;;;6.70;5.15;;;13.20;99.90;;;;;;5074462;28;20032;-76
2022/11/15 05:37:55;;;;;;;6.03;5.15;;;13.10;99.90;;;;;;5073876;28;20032;-76
2022/11/15 05:40:21;;;;;;;6.28;4.90;;;13.20;99.90;;;;;;5074423;28;20024;-76
2022/11/15 05:42:47;;;;;;;5.07;4.57;;;13.20;99.90;;;;;;5106484;28;20033;-76
2022/11/15 05:45:13;;;;;;;7.55;5.70;;;13.20;99.90;;;;;;5114820;27;20026;-76
2022/11/15 05:47:40;;;;;;;6.15;5.32;;;13.20;99.90;;;;;;5114717;28;20024;-76
2022/11/15 05:50:06;;;;;;;7.93;5.32;;;13.20;99.90;;;;;;5104958;28;20024;-76
2022/11/15 05:52:36;;;;;;;5.90;5.28;;;13.20;99.90;;;;;;5093813;28;20494;-76
2022/11/15 05:55:04;;;;;;;6.07;5.43;;;13.20;99.90;;;;;;5093839;28;20113;-76
2022/11/15 05:57:29;;;;;;;5.75;4.45;;;13.20;99.90;;;;;;5093905;28;20047;-76
2022/11/15 05:59:55;;;;;;;7.45;5.53;;;13.20;99.90;;;;;;5094022;28;20043;-76
2022/11/15 06:02:21;;;;;;;6.22;5.10;;;13.30;99.90;;;;;;5094247;28;20543;-75
2022/11/15 06:04:46;;;;;;;5.85;4.40;;;13.30;99.90;;;;;;5094307;28;20020;-75
2022/11/15 06:07:12;;;;;;;5.80;4.38;;;13.30;99.90;;;;;;5093686;28;20050;-76
2022/11/15 06:09:38;;;;;;;5.75;4.95;;;13.30;99.90;;;;;;5093949;28;20058;-75
2022/11/15 06:12:04;;;;;;;5.75;4.80;;;13.30;99.90;;;;;;5093585;28;20473;-76
2022/11/15 06:14:29;;;;;;;6.38;5.32;;;13.30;99.90;;;;;;5093762;28;20485;-76
2022/11/15 06:16:55;;;;;;;6.18;4.80;;;13.30;99.90;;;;;;5092349;28;20024;-76
2022/11/15 06:19:21;;;;;;;5.43;4.93;;;13.30;99.90;;;;;;5093858;28;20020;-75
2022/11/15 06:21:46;;;;;;;6.13;5.22;;;13.30;99.90;;;;;;5093510;28;20028;-76
2022/11/15 06:24:12;;;;;;;6.38;4.75;;;13.30;99.90;;;;;;5093291;28;20135;-76
2022/11/15 06:26:38;;;;;;;6.30;5.70;;;13.30;99.90;;;;;;5081725;28;20039;-76
2022/11/15 06:29:04;;;;;;;6.75;5.28;;;13.30;99.90;;;;;;5071918;28;20032;-76
2022/11/15 06:31:30;;;;;;;5.82;4.85;;;13.30;99.90;;;;;;5073261;28;20082;-76
2022/11/15 06:33:56;;;;;;;5.80;5.20;;;13.30;99.90;;;;;;5073395;28;20028;-76
2022/11/15 06:36:21;;;;;;;8.25;5.85;;;13.40;99.90;;;;;;5072770;28;20058;-76
2022/11/15 06:38:47;;;;;;;6.32;5.72;;;13.40;99.90;;;;;;5073335;28;20025;-76
2022/11/15 06:41:14;;;;;;;6.40;5.32;;;13.40;99.90;;;;;;5079403;28;20028;-75
2022/11/15 06:43:40;;;;;;;11.65;6.35;;;13.40;99.90;;;;;;5113949;28;20084;-76
2022/11/15 06:46:06;;;;;;;9.02;6.40;;;13.40;99.90;;;;;;5113923;28;20034;-76
2022/11/15 06:48:33;;;;;;;7.90;5.85;;;13.50;99.90;;;;;;5113683;28;20070;-76
2022/11/15 06:51:00;;;;;;;7.07;6.20;;;13.40;99.90;;;;;;5094623;28;20493;-76
2022/11/15 06:53:27;;;;;;;8.05;6.28;;;13.40;99.90;;;;;;5092882;28;20035;-76
2022/11/15 06:55:53;;;;;;;6.10;5.50;;;13.40;99.90;;;;;;5093191;28;20055;-75
2022/11/15 06:58:20;;;;;;;8.30;6.47;;;13.40;99.90;;;;;;5093137;28;20477;-76
2022/11/15 07:00:46;;;;;;;8.27;5.97;;;13.40;99.90;;;;;;5092805;28;20020;-76
2022/11/15 07:03:12;;;;;;;7.45;5.57;;;13.40;99.90;;;;;;5091408;28;20073;-76
2022/11/15 07:05:37;;;;;;;6.88;5.57;;;13.50;99.90;;;;;;5092137;28;20113;-76
2022/11/15 07:08:03;;;;;;;7.05;5.93;;;13.50;99.90;;;;;;5091264;28;20245;-76
2022/11/15 07:10:29;;;;;;;8.27;6.28;;;13.50;99.90;;;;;;5092794;28;20047;-76
2022/11/15 07:12:56;;;;;;;6.25;5.22;;;13.50;99.90;;;;;;5092631;28;20023;-76
2022/11/15 07:15:24;;;;;;;7.78;6.00;;;13.50;99.90;;;;;;5092776;28;20067;-76
2022/11/15 07:17:50;;;;;;;6.82;5.18;;;13.50;99.90;;;;;;5092408;28;20021;-76
2022/11/15 07:20:17;;;;;;;6.68;5.47;;;13.50;99.90;;;;;;5092687;28;20034;-76
2022/11/15 07:22:45;;;;;;;6.35;5.50;;;13.50;99.90;;;;;;5092286;28;20020;-76
2022/11/15 07:25:11;;;;;;;8.05;6.10;;;13.50;99.90;;;;;;5092114;28;20083;-76
2022/11/15 07:27:37;;;;;;;6.93;5.80;;;13.50;99.90;;;;;;5074290;28;20033;-76
2022/11/15 07:30:04;;;;;;;8.15;5.88;;;13.60;99.90;;;;;;5072296;28;20040;-76
2022/11/15 07:32:30;;;;;;;7.40;5.20;;;13.60;99.90;;;;;;5072251;28;20565;-76
2022/11/15 07:34:56;;;;;;;5.85;4.75;;;13.60;99.90;;;;;;5072082;28;20059;-76
2022/11/15 07:37:22;;;;;;;6.95;5.55;;;13.60;99.90;;;;;;5071730;28;20052;-76
2022/11/15 07:39:47;;;;;;;5.15;4.65;;;13.60;99.90;;;;;;5070836;28;20024;-76
2022/11/15 07:44:57;;;;;;;8.15;5.35;;;13.60;99.90;;;;;;5112480;28;20064;-76
2022/11/15 07:47:23;;;;;;;10.13;6.32;;;13.70;99.90;;;;;;5112810;28;20028;-76
2022/11/15 07:49:49;;;;;;;6.75;5.72;;;13.70;99.90;;;;;;5104982;28;20088;-76
2022/11/15 07:52:14;;;;;;;8.68;6.00;;;13.70;99.90;;;;;;5091804;28;20051;-76
2022/11/15 07:54:40;;;;;;;6.72;5.85;;;13.70;99.90;;;;;;5092261;28;20027;-76
2022/11/15 07:57:06;;;;;;;6.43;5.72;;;13.70;99.90;;;;;;5092350;28;20466;-76
2022/11/15 07:59:34;;;;;;;8.13;5.15;;;13.70;99.90;;;;;;5092209;28;20027;-76
2022/11/15 08:02:00;;;;;;;6.20;5.28;;;13.70;99.90;;;;;;5090686;28;20024;-76
2022/11/15 08:04:26;;;;;;;7.13;5.30;;;13.70;99.90;;;;;;5091977;28;20081;-76
2022/11/15 08:06:51;;;;;;;5.68;5.05;;;13.80;99.90;;;;;;5090260;28;20032;-76
2022/11/15 08:09:17;;;;;;;5.60;4.93;;;13.70;99.90;;;;;;5092125;28;20027;-76
2022/11/15 08:11:43;;;;;;;5.57;5.07;;;13.80;99.90;;;;;;5092071;28;20047;-76
2022/11/15 08:14:08;;;;;;;7.03;5.35;;;13.80;99.90;;;;;;5092095;28;20531;-76
2022/11/15 08:16:34;;;;;;;6.03;5.43;;;13.80;99.90;;;;;;5093150;28;20043;-76
2022/11/15 08:19:00;;;;;;;6.55;5.15;;;13.80;99.90;;;;;;5095924;28;20024;-76
2022/11/15 08:21:25;;;;;;;7.18;5.40;;;13.90;99.90;;;;;;5094481;28;20031;-76
2022/11/15 08:23:51;;;;;;;7.13;5.13;;;13.90;99.90;;;;;;5095831;28;20580;-76
2022/11/15 08:26:17;;;;;;;7.53;5.45;;;13.90;99.90;;;;;;5088518;28;20413;-76
2022/11/15 08:28:43;;;;;;;9.05;5.40;;;14.00;99.90;;;;;;5075901;28;20496;-76
2022/11/15 08:31:17;;;;;;;6.20;5.57;;;14.00;99.90;;;;;;5075758;28;20056;-76
2022/11/15 08:33:43;;;;;;;7.80;6.18;;;14.00;99.90;;;;;;5075636;28;20021;-76
2022/11/15 08:36:14;;;;;;;5.80;5.18;;;14.10;99.90;;;;;;5075063;28;20029;-76
2022/11/15 08:38:40;;;;;;;7.43;5.93;;;14.30;99.90;;;;;;5075314;28;20028;-76
2022/11/15 08:41:06;;;;;;;6.35;5.75;;;14.40;99.90;;;;;;5079762;28;20753;-76
2022/11/15 08:43:32;;;;;;;6.45;5.65;;;14.40;99.90;;;;;;5116170;28;20105;-76
2022/11/15 08:45:58;;;;;;;6.22;5.63;;;14.40;99.90;;;;;;5116056;28;20023;-76
2022/11/15 08:48:24;;;;;;;6.82;6.13;;;14.50;99.90;;;;;;5115880;28;20099;-76
2022/11/15 08:50:56;;;;;;;10.15;7.18;;;14.50;99.90;;;;;;5099623;28;20125;-77
2022/11/15 08:53:22;;;;;;;8.85;6.13;;;14.50;99.90;;;;;;5095469;28;20032;-76
2022/11/15 08:55:48;;;;;;;8.13;6.88;;;14.60;99.90;;;;;;5095222;28;20028;-76
2022/11/15 08:58:13;;;;;;;7.18;5.82;;;14.60;99.90;;;;;;5095339;28;20508;-76
2022/11/15 09:00:39;;;;;;;10.98;7.63;;;14.60;99.90;;;;;;5095110;28;20582;-76
2022/11/15 09:03:06;;;;;;;7.68;6.22;;;14.60;99.90;;;;;;5094934;28;20571;-76
2022/11/15 09:05:31;;;;;;;6.82;6.22;;;14.60;99.90;;;;;;5095073;28;20028;-76
2022/11/15 09:07:57;;;;;;;7.28;6.28;;;14.60;99.90;;;;;;5094938;28;20078;-76
2022/11/15 09:10:24;;;;;;;7.30;6.60;;;14.60;99.90;;;;;;5094956;28;20024;-76
2022/11/15 09:12:50;;;;;;;8.30;6.68;;;14.60;99.90;;;;;;5094797;28;20115;-77
2022/11/15 09:15:16;;;;;;;7.53;6.18;;;14.60;99.90;;;;;;5094656;28;20118;-76
2022/11/15 09:17:42;;;;;;;7.50;6.28;;;14.70;99.90;;;;;;5095160;28;20055;-76
2022/11/15 09:20:08;;;;;;;6.38;5.78;;;14.80;99.90;;;;;;5094495;28;20435;-76
2022/11/15 09:22:34;;;;;;;6.95;6.28;;;14.90;99.90;;;;;;5094692;28;20024;-76
2022/11/15 09:25:00;;;;;;;9.30;6.57;;;15.00;99.90;;;;;;5094490;28;20412;-76
2022/11/15 09:27:29;;;;;;;7.13;6.28;;;15.30;99.90;;;;;;5077506;28;20044;-76
2022/11/15 09:29:57;;;;;;;5.97;5.20;;;15.40;99.90;;;;;;5089441;28;20048;-76
2022/11/15 09:32:23;;;;;;;6.25;5.65;;;15.40;99.90;;;;;;5089856;28;20029;-76
2022/11/15 09:34:50;;;;;;;6.53;5.72;;;15.40;99.90;;;;;;5074146;28;20021;-77
2022/11/15 09:37:16;;;;;;;6.15;5.40;;;15.40;99.90;;;;;;5074246;28;20036;-76
2022/11/15 09:39:42;;;;;;;6.15;5.05;;;15.40;99.90;;;;;;5074541;28;20017;-76
2022/11/15 09:42:43;;;;;;;6.07;5.32;;;15.30;99.90;;;;;;5096082;28;20424;-77
2022/11/15 09:45:23;;;;;;;5.20;4.70;;;15.30;99.90;;;;;;5051624;28;20049;-76
2022/11/15 09:48:19;;;;;;;5.60;5.03;;;15.30;99.90;;;;;;5051490;28;20103;-76
2022/11/15 09:50:59;;;;;;;5.55;5.03;;;15.30;99.90;;;;;;5036204;28;20538;-77
2022/11/15 09:53:58;;;;;;;5.03;4.60;;;15.40;99.90;;;;;;5031798;28;20045;-76
2022/11/15 09:56:29;;;;;;;5.88;4.93;;;15.50;99.90;;;;;;5020593;28;20033;-77
2022/11/15 09:59:22;;;;;;;6.45;5.78;;;15.50;99.90;;;;;;5031638;28;20033;-76
2022/11/15 10:02:02;;;;;;;7.75;5.22;;;15.50;99.90;;;;;;5031367;28;20065;-77
2022/11/15 10:04:28;;;;;;;6.20;5.60;;;15.50;99.90;;;;;;5031517;28;20026;-77
2022/11/15 10:07:03;;;;;;;7.85;5.50;;;15.60;99.90;;;;;;5014575;28;20033;-76
2022/11/15 10:09:41;;;;;;;5.93;5.35;;;15.60;99.90;;;;;;5031512;28;20022;-77
2022/11/15 10:12:09;;;;;;;6.65;5.57;;;15.80;99.90;;;;;;5031153;28;20038;-77
2022/11/15 10:14:35;;;;;;;5.55;4.82;;;16.20;99.90;;;;;;5031222;28;20025;-77
2022/11/15 10:17:03;;;;;;;6.95;5.32;;;16.50;99.90;;;;;;5030892;28;20036;-77
2022/11/15 10:19:47;;;;;;;5.43;4.93;;;16.70;99.90;;;;;;5058675;28;20115;-77
2022/11/15 10:22:29;;;;;;;6.82;5.72;;;16.90;99.90;;;;;;5073389;28;20111;-77
2022/11/15 10:25:12;;;;;;;6.13;5.18;;;16.80;99.90;;;;;;5073141;28;20098;-77
2022/11/15 10:27:40;;;;;;;5.63;5.13;;;16.70;99.90;;;;;;5073421;28;20024;-77
2022/11/15 10:30:17;;;;;;;7.82;5.57;;;16.90;99.90;;;;;;5073706;28;20021;-77
2022/11/15 10:32:45;;;;;;;7.13;5.65;;;17.00;99.90;;;;;;5073474;28;20070;-77
2022/11/15 10:35:25;;;;;;;6.03;5.43;;;17.10;99.90;;;;;;5072965;28;20032;-77
2022/11/15 10:37:51;;;;;;;5.45;4.93;;;17.00;99.90;;;;;;5072878;28;20490;-77
2022/11/15 10:40:22;;;;;;;5.28;4.47;;;16.90;99.90;;;;;;5072855;28;20025;-77
2022/11/15 10:43:09;;;;;;;5.28;4.82;;;17.00;99.90;;;;;;5104577;28;20119;-77
2022/11/15 10:45:35;;;;;;;5.18;4.78;;;17.00;99.90;;;;;;5113071;28;20042;-77
2022/11/15 10:48:12;;;;;;;5.10;4.60;;;17.00;99.90;;;;;;5113838;28;20036;-77
2022/11/15 10:50:40;;;;;;;5.05;4.55;;;17.00;99.90;;;;;;5098793;28;20036;-77
2022/11/15 10:53:31;;;;;;;5.03;4.60;;;17.00;99.90;;;;;;5091624;28;20118;-77
2022/11/15 10:56:05;;;;;;;4.90;4.50;;;17.10;99.90;;;;;;5084253;28;20516;-77
2022/11/15 10:58:41;;;;;;;5.07;4.57;;;17.10;99.90;;;;;;5093229;28;20072;-77
2022/11/15 11:01:22;;;;;;;5.60;5.07;;;17.10;99.90;;;;;;5092562;28;20085;-77
2022/11/15 11:04:09;;;;;;;4.30;3.90;;;17.10;99.90;;;;;;5093057;28;20073;-77
2022/11/15 11:06:48;;;;;;;4.10;3.70;;;17.10;99.90;;;;;;5092363;28;20035;-77
2022/11/15 11:09:43;;;;;;;4.20;3.45;;;17.10;99.90;;;;;;5091586;28;20070;-77
2022/11/15 11:12:12;;;;;;;4.55;4.15;;;17.00;99.90;;;;;;5091007;28;20055;-77
2022/11/15 11:14:39;;;;;;;4.63;4.22;;;17.10;99.90;;;;;;5092492;28;20081;-77
2022/11/15 11:17:16;;;;;;;4.65;4.25;;;17.10;99.90;;;;;;5092570;28;20115;-77
2022/11/15 11:20:21;;;;;;;4.85;4.43;;;17.30;99.90;;;;;;5091291;28;20017;-77
2022/11/15 11:23:04;;;;;;;5.60;4.28;;;17.50;99.90;;;;;;5092447;28;20028;-77
2022/11/15 11:25:48;;;;;;;4.68;4.22;;;17.70;99.90;;;;;;5091757;28;20115;-77
2022/11/15 11:28:32;;;;;;;4.95;4.25;;;17.80;99.90;;;;;;5070939;28;20081;-77
2022/11/15 11:31:33;;;;;;;4.47;4.07;;;18.00;99.90;;;;;;5072071;28;20470;-77
2022/11/15 11:34:17;;;;;;;4.95;4.20;;;18.00;99.90;;;;;;5010187;28;20033;-77
2022/11/15 11:36:57;;;;;;;5.45;4.70;;;18.00;99.90;;;;;;5009831;28;20038;-77
2022/11/15 11:39:52;;;;;;;4.70;4.07;;;17.80;99.90;;;;;;4993749;28;20049;-77
2022/11/15 11:42:32;;;;;;;4.80;4.40;;;17.70;99.90;;;;;;5033833;28;20029;-77
2022/11/15 11:45:13;;;;;;;4.47;4.05;;;17.70;99.90;;;;;;5032878;28;20128;-77
2022/11/15 11:47:44;;;;;;;4.50;4.05;;;17.60;99.90;;;;;;5049624;28;20049;-77
2022/11/15 11:50:23;;;;;;;4.88;4.38;;;17.60;99.90;;;;;;5039277;28;20029;-77
2022/11/15 11:53:06;;;;;;;4.50;4.10;;;17.50;99.90;;;;;;5029031;28;20068;-77
2022/11/15 11:55:38;;;;;;;4.88;4.38;;;17.40;99.90;;;;;;5029653;28;20022;-77
2022/11/15 11:58:17;;;;;;;4.57;4.10;;;17.40;99.90;;;;;;5029661;28;20037;-77
2022/11/15 12:00:55;;;;;;;4.38;4.07;;;17.40;99.90;;;;;;5029601;28;20491;-77
2022/11/15 12:03:30;;;;;;;4.35;4.00;;;17.50;99.90;;;;;;5029670;28;20034;-77
2022/11/15 12:06:05;;;;;;;4.32;3.78;;;17.60;99.90;;;;;;5012951;28;20155;-77
2022/11/15 12:08:52;;;;;;;5.45;4.20;;;17.60;99.90;;;;;;5033152;28;20100;-77
2022/11/15 12:11:48;;;;;;;4.60;4.20;;;17.70;99.90;;;;;;5091784;28;20036;-78
2022/11/15 12:14:26;;;;;;;6.47;3.80;;;17.70;99.90;;;;;;5009501;28;20042;-77
2022/11/15 12:16:52;;;;;;;4.20;3.80;;;17.70;99.90;;;;;;5009518;28;20052;-77
2022/11/15 12:19:17;;;;;;;5.32;3.92;;;17.70;99.90;;;;;;5009705;28;20539;-78
2022/11/15 12:21:55;;;;;;;7.82;5.00;;;17.70;99.90;;;;;;5009418;28;20109;-77
2022/11/15 12:24:29;;;;;;;4.65;4.25;;;17.70;99.90;;;;;;5009479;28;20049;-78
2022/11/15 12:27:17;;;;;;;6.05;4.47;;;17.70;99.90;;;;;;4980924;28;20619;-77
2022/11/15 12:29:48;;;;;;;5.40;4.90;;;17.70;99.90;;;;;;4990173;28;20157;-77
2022/11/15 12:32:24;;;;;;;;;;;17.60;99.90;;;;;;4990331;28;20031;-77
2022/11/15 12:34:50;;;;;;;8.65;4.80;;;17.70;99.90;;;;;;4990294;28;20351;-78
2022/11/15 12:37:42;;;;;;;5.90;4.75;;;17.60;99.90;;;;;;4989596;28;20038;-78
2022/11/15 12:40:29;;;;;;;5.53;4.60;;;17.60;99.90;;;;;;4980023;28;20085;-78
2022/11/15 12:43:13;;;;;;;5.03;4.60;;;17.60;99.90;;;;;;5023457;28;20083;-77
2022/11/15 12:45:41;;;;;;;4.93;4.43;;;17.70;99.90;;;;;;5029173;28;20074;-78
2022/11/15 12:48:15;;;;;;;4.32;3.92;;;17.70;99.90;;;;;;5029357;28;20112;-77
2022/11/15 12:50:50;;;;;;;5.88;4.50;;;17.70;99.90;;;;;;5031207;28;20032;-78
2022/11/15 12:53:25;;;;;;;4.68;4.18;;;17.70;99.90;;;;;;5091214;28;20039;-78
2022/11/15 12:56:16;;;;;;;4.80;3.80;;;17.70;99.90;;;;;;5090161;28;20069;-77
2022/11/15 12:58:48;;;;;;;4.07;3.78;;;17.70;99.90;;;;;;5079606;28;20036;-78
2022/11/15 13:01:37;;;;;;;4.30;3.90;;;17.70;99.90;;;;;;5091566;28;20529;-78
2022/11/15 13:04:26;;;;;;;6.60;4.75;;;17.70;99.90;;;;;;5092180;28;20024;-78
2022/11/15 13:06:52;;;;;;;4.32;3.92;;;17.70;99.90;;;;;;5095078;28;20020;-77
2022/11/15 13:09:35;;;;;;;5.45;4.40;;;17.70;99.90;;;;;;5095108;28;20085;-78
2022/11/15 13:12:03;;;;;;;4.32;3.83;;;17.70;99.90;;;;;;5094618;28;20493;-78
2022/11/15 13:14:50;;;;;;;4.82;3.80;;;17.70;99.90;;;;;;5094731;28;20024;-78
2022/11/15 13:17:19;;;;;;;4.03;3.63;;;17.70;99.90;;;;;;5094851;28;20027;-78
2022/11/15 13:19:47;;;;;;;4.22;3.50;;;17.70;99.90;;;;;;5095146;28;20024;-78
2022/11/15 13:25:01;;;;;;;4.15;3.80;;;17.70;99.90;;;;;;5094514;28;20054;-77
2022/11/15 13:27:27;;;;;;;3.97;3.65;;;17.60;99.90;;;;;;5077757;28;20098;-78
2022/11/15 13:29:53;;;;;;;4.07;3.78;;;17.60;99.90;;;;;;5074591;28;20056;-77